Time;durP1;ratioP1;P1;durP2;ratioP2;P2;SDS_P1;SDS_P2;PMS_P1;PMS_P2;Temp;Humidity;BMP_temperature;BMP_pressure;BME280_temperature;BME280_humidity;BME280_pressure;Samples;Min_cycle;Max_cycle;Signal;HPM_P1;HPM_P2
2022/08/06 00:00:03;;;;;;;5.72;2.10;;;;;;;;;;5012224;28;99487;-72
2022/08/06 00:02:39;;;;;;;9.25;2.80;;;;;;;;;;5011540;28;99194;-72
2022/08/06 00:05:07;;;;;;;10.57;2.05;;;;;;;;;;4972597;28;99878;-72
2022/08/06 00:07:34;;;;;;;7.35;2.30;;;;;;;;;;4972182;28;99413;-72
2022/08/06 00:10:13;;;;;;;7.38;2.38;;;;;;;;;;4971777;28;98528;-72
2022/08/06 00:12:40;;;;;;;6.68;2.05;;;;;;;;;;4986978;28;99309;-72
2022/08/06 00:15:06;;;;;;;6.60;1.92;;;;;;;;;;4991778;28;99602;-72
2022/08/06 00:17:42;;;;;;;7.03;1.95;;;;;;;;;;4991824;28;99545;-71
2022/08/06 00:20:09;;;;;;;8.38;1.80;;;;;;;;;;4991475;28;100097;-72
2022/08/06 00:22:36;;;;;;;6.10;2.00;;;;;;;;;;4991747;28;99044;-72
2022/08/06 00:25:02;;;;;;;10.30;2.00;;;;;;;;;;4991637;28;99531;-72
2022/08/06 00:27:30;;;;;;;8.57;2.75;;;;;;;;;;4991800;28;100180;-72
2022/08/06 00:30:05;;;;;;;5.68;3.55;;;;;;;;;;4991441;28;98498;-72
2022/08/06 00:32:44;;;;;;;6.28;2.58;;;;;;;;;;4994933;28;99883;-72
2022/08/06 00:35:11;;;;;;;8.95;2.08;;;;;;;;;;4992106;28;98461;-72
2022/08/06 00:37:41;;;;;;;7.88;1.80;;;;;;;;;;4990724;28;100330;-71
2022/08/06 00:40:24;;;;;;;5.32;2.00;;;;;;;;;;4991570;28;99892;-72
2022/08/06 00:42:54;;;;;;;5.35;1.98;;;;;;;;;;4991396;28;98375;-71
2022/08/06 00:45:21;;;;;;;5.20;2.22;;;;;;;;;;4991335;28;99295;-72
2022/08/06 00:47:50;;;;;;;8.50;1.73;;;;;;;;;;4971434;28;101017;-72
2022/08/06 00:50:29;;;;;;;7.50;2.13;;;;;;;;;;4971660;28;98496;-72
2022/08/06 00:52:55;;;;;;;6.95;2.38;;;;;;;;;;4971093;28;99290;-72
2022/08/06 00:55:23;;;;;;;7.40;1.60;;;;;;;;;;4974984;28;98379;-72
2022/08/06 00:58:03;;;;;;;6.97;2.20;;;;;;;;;;4972207;28;99004;-72
2022/08/06 01:00:30;;;;;;;7.30;2.30;;;;;;;;;;4971526;28;99329;-72
2022/08/06 01:03:04;;;;;;;6.78;2.45;;;;;;;;;;4982043;28;98580;-72
2022/08/06 01:05:30;;;;;;;9.32;1.73;;;;;;;;;;5010488;28;100097;-71
2022/08/06 01:08:16;;;;;;;2.65;1.58;;;;;;;;;;5011192;28;100125;-72
2022/08/06 01:10:43;;;;;;;6.85;2.17;;;;;;;;;;5011346;28;98398;-72
2022/08/06 01:13:10;;;;;;;11.60;1.80;;;;;;;;;;5010956;28;99247;-72
2022/08/06 01:16:09;;;;;;;6.65;1.90;;;;;;;;;;5010435;28;99496;-72
2022/08/06 01:18:40;;;;;;;4.90;1.42;;;;;;;;;;5013410;28;98680;-72
2022/08/06 01:21:13;;;;;;;5.72;1.95;;;;;;;;;;5009193;28;99317;-72
2022/08/06 01:24:11;;;;;;;4.30;2.10;;;;;;;;;;5011624;28;97835;-72
2022/08/06 01:26:53;;;;;;;6.65;2.33;;;;;;;;;;5010128;28;99369;-72
2022/08/06 01:29:22;;;;;;;10.07;3.22;;;;;;;;;;5011349;28;99297;-72
2022/08/06 01:32:03;;;;;;;3.58;2.00;;;;;;;;;;5010709;28;99233;-72
2022/08/06 01:34:35;;;;;;;6.18;2.20;;;;;;;;;;5010622;28;100602;-72
2022/08/06 01:37:05;;;;;;;8.50;1.90;;;;;;;;;;5004540;28;99648;-72
2022/08/06 01:39:32;;;;;;;4.30;2.10;;;;;;;;;;4991274;28;98501;-72
2022/08/06 01:42:19;;;;;;;6.05;1.65;;;;;;;;;;4997575;27;98592;-72
2022/08/06 01:45:02;;;;;;;3.90;1.48;;;;;;;;;;4994706;28;98555;-72
2022/08/06 01:47:30;;;;;;;6.55;2.00;;;;;;;;;;4993558;28;98440;-72
2022/08/06 01:50:19;;;;;;;4.57;1.92;;;;;;;;;;4994647;28;98670;-72
2022/08/06 01:52:55;;;;;;;3.55;1.70;;;;;;;;;;4994294;28;98550;-72
2022/08/06 01:55:27;;;;;;;6.85;1.63;;;;;;;;;;4994387;28;100134;-72
2022/08/06 01:58:15;;;;;;;8.60;2.00;;;;;;;;;;4993936;28;100184;-72
2022/08/06 02:00:56;;;;;;;4.28;1.67;;;;;;;;;;4994266;28;98810;-72
2022/08/06 02:03:35;;;;;;;7.97;2.17;;;;;;;;;;4993892;28;100083;-72
2022/08/06 02:06:22;;;;;;;7.25;2.00;;;;;;;;;;4997316;28;100204;-72
2022/08/06 02:08:56;;;;;;;9.27;2.40;;;;;;;;;;4993745;28;100163;-72
2022/08/06 02:11:23;;;;;;;5.13;2.08;;;;;;;;;;5002729;28;99225;-72
2022/08/06 02:14:10;;;;;;;4.15;1.80;;;;;;;;;;5014466;28;99269;-72
2022/08/06 02:16:40;;;;;;;5.75;1.90;;;;;;;;;;5013767;28;99526;-72
2022/08/06 02:19:09;;;;;;;5.00;2.00;;;;;;;;;;5013591;28;99301;-72
2022/08/06 02:21:42;;;;;;;7.53;2.10;;;;;;;;;;5014197;28;98489;-72
2022/08/06 02:24:16;;;;;;;6.00;1.77;;;;;;;;;;5013131;28;99721;-72
2022/08/06 02:26:44;;;;;;;7.47;2.13;;;;;;;;;;5013657;28;100143;-71
2022/08/06 02:29:13;;;;;;;7.53;2.28;;;;;;;;;;5016279;28;98512;-72
2022/08/06 02:31:40;;;;;;;5.03;2.00;;;;;;;;;;5012992;28;100052;-72
2022/08/06 02:34:18;;;;;;;4.10;1.75;;;;;;;;;;5014245;28;98343;-72
2022/08/06 02:37:05;;;;;;;3.40;1.70;;;;;;;;;;5013250;28;99115;-72
2022/08/06 02:39:35;;;;;;;7.63;2.20;;;;;;;;;;5013320;28;99555;-72
2022/08/06 02:42:25;;;;;;;6.28;2.20;;;;;;;;;;5014631;28;97766;-72
2022/08/06 02:44:59;;;;;;;11.82;2.72;;;;;;;;;;5012190;28;98582;-72
2022/08/06 02:47:28;;;;;;;5.53;1.92;;;;;;;;;;5013590;28;99311;-72
2022/08/06 02:50:15;;;;;;;8.05;2.40;;;;;;;;;;5016463;28;99307;-72
2022/08/06 02:52:44;;;;;;;6.65;2.72;;;;;;;;;;5011686;28;100100;-72
2022/08/06 02:55:24;;;;;;;6.53;2.60;;;;;;;;;;5013559;28;99198;-72
2022/08/06 02:58:09;;;;;;;11.15;2.33;;;;;;;;;;5012945;28;98923;-71
2022/08/06 03:00:42;;;;;;;9.90;2.67;;;;;;;;;;5008340;28;100301;-72
2022/08/06 03:03:21;;;;;;;7.97;2.00;;;;;;;;;;4993812;28;99719;-72
2022/08/06 03:06:02;;;;;;;5.93;2.25;;;;;;;;;;4992620;28;99000;-71
2022/08/06 03:08:30;;;;;;;7.35;2.10;;;;;;;;;;4993471;28;98537;-72
2022/08/06 03:11:00;;;;;;;5.40;2.30;;;;;;;;;;4992989;28;98428;-72
2022/08/06 03:13:27;;;;;;;8.98;2.20;;;;;;;;;;4995236;28;100238;-72
2022/08/06 03:15:55;;;;;;;5.20;2.28;;;;;;;;;;4992280;28;100073;-72
2022/08/06 03:18:27;;;;;;;9.60;3.08;;;;;;;;;;4993228;28;100676;-72
2022/08/06 03:20:54;;;;;;;11.68;2.38;;;;;;;;;;5011629;28;100026;-71
2022/08/06 03:23:23;;;;;;;4.18;2.15;;;;;;;;;;5012455;28;98885;-71
2022/08/06 03:25:53;;;;;;;6.55;2.35;;;;;;;;;;5011290;28;99149;-71
2022/08/06 03:28:19;;;;;;;5.78;2.00;;;;;;;;;;5012014;28;100401;-71
2022/08/06 03:30:48;;;;;;;9.65;2.38;;;;;;;;;;5012762;28;98470;-71
2022/08/06 03:33:21;;;;;;;8.57;1.88;;;;;;;;;;5013215;28;99059;-71
2022/08/06 03:36:08;;;;;;;8.38;2.50;;;;;;;;;;5015591;28;100611;-71
2022/08/06 03:38:40;;;;;;;10.65;2.67;;;;;;;;;;4993093;28;99071;-71
2022/08/06 03:41:07;;;;;;;3.55;2.15;;;;;;;;;;4970765;28;100120;-72
2022/08/06 03:43:34;;;;;;;3.60;2.13;;;;;;;;;;4973778;28;98505;-71
2022/08/06 03:46:29;;;;;;;5.55;1.90;;;;;;;;;;4972481;28;99032;-72
2022/08/06 03:48:58;;;;;;;7.20;2.20;;;;;;;;;;4971462;28;100254;-71
2022/08/06 03:51:26;;;;;;;4.22;1.90;;;;;;;;;;4973514;28;99817;-71
2022/08/06 03:54:15;;;;;;;6.28;2.03;;;;;;;;;;4988990;28;98599;-71
2022/08/06 03:56:55;;;;;;;7.95;2.33;;;;;;;;;;4992503;28;100017;-71
2022/08/06 03:59:24;;;;;;;6.10;2.00;;;;;;;;;;4996027;28;97888;-71
2022/08/06 04:02:04;;;;;;;7.18;2.10;;;;;;;;;;4991438;28;99337;-71
2022/08/06 04:04:32;;;;;;;10.18;2.42;;;;;;;;;;4991632;28;98707;-71
2022/08/06 04:07:00;;;;;;;8.40;2.10;;;;;;;;;;4991618;28;99457;-71
2022/08/06 04:09:30;;;;;;;9.30;2.13;;;;;;;;;;4991872;28;99385;-71
2022/08/06 04:12:17;;;;;;;5.25;1.80;;;;;;;;;;5012750;28;98503;-72
2022/08/06 04:15:04;;;;;;;5.43;2.17;;;;;;;;;;5011620;28;99019;-72
2022/08/06 04:17:37;;;;;;;6.22;2.28;;;;;;;;;;5012085;28;99465;-72
2022/08/06 04:20:09;;;;;;;5.25;1.77;;;;;;;;;;5012269;28;98624;-72
2022/08/06 04:22:36;;;;;;;4.55;1.80;;;;;;;;;;5014266;28;99462;-72
2022/08/06 04:25:23;;;;;;;7.20;2.08;;;;;;;;;;5012291;28;97996;-72
2022/08/06 04:27:50;;;;;;;7.53;2.40;;;;;;;;;;5010217;28;98642;-72
2022/08/06 04:30:21;;;;;;;6.65;2.50;;;;;;;;;;5010477;28;100246;-72
2022/08/06 04:32:51;;;;;;;5.63;2.17;;;;;;;;;;5011781;28;99315;-71
2022/08/06 04:35:27;;;;;;;5.63;1.90;;;;;;;;;;5012523;28;100701;-72
2022/08/06 04:38:15;;;;;;;10.57;2.20;;;;;;;;;;5011246;28;100124;-71
2022/08/06 04:40:53;;;;;;;3.95;2.05;;;;;;;;;;5011505;28;98488;-72
2022/08/06 04:43:20;;;;;;;8.00;2.50;;;;;;;;;;5013862;28;100119;-72
2022/08/06 04:45:48;;;;;;;11.35;1.90;;;;;;;;;;5011339;28;98600;-73
2022/08/06 04:48:34;;;;;;;4.03;2.00;;;;;;;;;;5012048;28;99636;-71
2022/08/06 04:51:11;;;;;;;6.78;2.40;;;;;;;;;;5011280;28;98736;-72
2022/08/06 04:53:58;;;;;;;5.22;2.00;;;;;;;;;;5011971;28;98603;-71
2022/08/06 04:56:24;;;;;;;4.60;2.08;;;;;;;;;;5011961;28;99836;-72
2022/08/06 04:58:58;;;;;;;6.05;2.17;;;;;;;;;;5009869;28;100102;-72
2022/08/06 05:01:24;;;;;;;4.82;1.90;;;;;;;;;;4999507;28;98511;-72
2022/08/06 05:03:53;;;;;;;9.48;2.30;;;;;;;;;;4991126;28;99065;-72
2022/08/06 05:06:47;;;;;;;5.40;2.08;;;;;;;;;;4993848;28;99395;-72
2022/08/06 05:09:19;;;;;;;6.97;2.33;;;;;;;;;;4991342;28;99889;-72
2022/08/06 05:11:54;;;;;;;7.50;2.17;;;;;;;;;;4990091;28;99370;-72
2022/08/06 05:14:37;;;;;;;3.40;2.00;;;;;;;;;;4991159;28;98579;-72
2022/08/06 05:17:04;;;;;;;5.13;1.75;;;;;;;;;;4990927;28;99143;-72
2022/08/06 05:19:57;;;;;;;4.68;1.85;;;;;;;;;;4990332;28;100123;-72
2022/08/06 05:22:24;;;;;;;8.75;1.80;;;;;;;;;;4985810;28;98868;-72
2022/08/06 05:25:10;;;;;;;6.65;1.73;;;;;;;;;;4990208;28;99181;-72
2022/08/06 05:27:52;;;;;;;7.43;1.70;;;;;;;;;;4990623;28;100303;-72
2022/08/06 05:30:33;;;;;;;6.47;1.95;;;;;;;;;;4993562;28;98671;-71
2022/08/06 05:33:00;;;;;;;9.48;1.98;;;;;;;;;;4985336;28;100641;-71
2022/08/06 05:35:28;;;;;;;7.53;1.83;;;;;;;;;;4975473;28;99200;-71
2022/08/06 05:38:07;;;;;;;11.07;1.77;;;;;;;;;;4983726;28;98854;-71
2022/08/06 05:40:38;;;;;;;8.38;1.83;;;;;;;;;;4969079;28;100016;-72
2022/08/06 05:43:19;;;;;;;4.38;1.63;;;;;;;;;;4975812;28;99749;-72
2022/08/06 05:45:47;;;;;;;12.18;2.33;;;;;;;;;;4979868;28;98830;-71
2022/08/06 05:48:16;;;;;;;3.63;1.52;;;;;;;;;;4988098;28;99139;-71
2022/08/06 05:50:57;;;;;;;10.60;1.75;;;;;;;;;;4975579;28;99360;-71
2022/08/06 05:53:28;;;;;;;6.68;1.90;;;;;;;;;;4994093;28;100283;-71
2022/08/06 05:56:17;;;;;;;7.32;2.17;;;;;;;;;;4990384;28;98612;-72
2022/08/06 05:59:06;;;;;;;5.35;1.85;;;;;;;;;;4983649;28;99822;-73
2022/08/06 06:01:53;;;;;;;2.88;1.33;;;;;;;;;;4984927;28;100308;-74
2022/08/06 06:04:20;;;;;;;2.85;1.73;;;;;;;;;;5002870;28;98745;-72
2022/08/06 06:06:58;;;;;;;3.95;1.30;;;;;;;;;;4984392;28;100370;-71
2022/08/06 06:09:29;;;;;;;4.53;1.50;;;;;;;;;;4979850;28;99247;-71
2022/08/06 06:12:16;;;;;;;8.27;1.58;;;;;;;;;;4983498;28;98705;-72
2022/08/06 06:14:59;;;;;;;4.20;1.73;;;;;;;;;;4979138;28;98838;-72
2022/08/06 06:17:25;;;;;;;3.13;1.40;;;;;;;;;;4992711;28;100927;-71
2022/08/06 06:19:57;;;;;;;7.97;1.95;;;;;;;;;;4989248;28;99884;-72
2022/08/06 06:22:30;;;;;;;6.40;1.55;;;;;;;;;;4974121;28;100449;-71
2022/08/06 06:25:02;;;;;;;5.70;1.38;;;;;;;;;;4990546;28;98580;-72
2022/08/06 06:27:38;;;;;;;4.22;1.15;;;;;;;;;;4992010;28;98517;-71
2022/08/06 06:30:16;;;;;;;3.17;2.00;;;;;;;;;;4991963;28;99382;-72
2022/08/06 06:33:09;;;;;;;2.67;1.10;;;;;;;;;;4975124;28;98624;-71
2022/08/06 06:35:53;;;;;;;1.80;1.00;;;;;;;;;;4976455;28;99091;-72
2022/08/06 06:38:25;;;;;;;3.63;1.20;;;;;;;;;;4977145;28;100423;-71
2022/08/06 06:40:54;;;;;;;4.43;1.30;;;;;;;;;;4985958;28;98523;-72
2022/08/06 06:43:47;;;;;;;1.95;1.05;;;;;;;;;;4980479;28;100134;-72
2022/08/06 06:46:19;;;;;;;8.43;1.52;;;;;;;;;;4990639;28;98599;-72
2022/08/06 06:49:18;;;;;;;4.20;1.08;;;;;;;;;;4980738;28;99061;-72
2022/08/06 06:52:25;;;;;;;2.30;1.58;;;;;;;;;;4970164;28;99301;-72
2022/08/06 06:55:02;;;;;;;7.67;1.83;;;;;;;;;;4976642;28;98590;-72
2022/08/06 06:57:43;;;;;;;1.80;1.05;;;;;;;;;;4979138;28;100340;-72
2022/08/06 07:00:12;;;;;;;2.08;1.10;;;;;;;;;;4975433;28;99848;-72
2022/08/06 07:02:59;;;;;;;2.40;1.23;;;;;;;;;;4982524;28;97882;-72
2022/08/06 07:05:26;;;;;;;4.20;1.45;;;;;;;;;;4977169;28;99357;-72
2022/08/06 07:08:14;;;;;;;3.03;1.45;;;;;;;;;;4979905;28;99336;-73
2022/08/06 07:10:56;;;;;;;4.18;1.70;;;;;;;;;;4977121;28;100185;-73
2022/08/06 07:13:24;;;;;;;2.38;1.30;;;;;;;;;;4977510;28;100475;-73
2022/08/06 07:16:12;;;;;;;2.17;1.10;;;;;;;;;;4977793;28;98969;-76
2022/08/06 07:19:00;;;;;;;1.77;0.90;;;;;;;;;;4974668;28;100062;-77
2022/08/06 07:21:26;;;;;;;9.50;2.40;;;;;;;;;;4974208;28;99368;-78
2022/08/06 07:23:53;;;;;;;4.57;0.90;;;;;;;;;;4979433;28;98981;-76
2022/08/06 07:26:43;;;;;;;3.03;1.38;;;;;;;;;;4976350;28;99786;-76
2022/08/06 07:29:17;;;;;;;3.45;1.17;;;;;;;;;;4977148;28;97824;-77
2022/08/06 07:32:04;;;;;;;1.48;0.82;;;;;;;;;;4980696;28;100501;-77
2022/08/06 07:34:32;;;;;;;5.00;1.05;;;;;;;;;;4983037;28;100226;-75
2022/08/06 07:36:59;;;;;;;4.15;1.40;;;;;;;;;;4973853;28;99534;-74
2022/08/06 07:39:33;;;;;;;3.17;0.77;;;;;;;;;;4974158;28;99951;-71
2022/08/06 07:42:05;;;;;;;5.55;1.30;;;;;;;;;;4971906;28;100395;-73
2022/08/06 07:44:38;;;;;;;4.32;1.05;;;;;;;;;;4977707;28;100416;-74
2022/08/06 07:47:34;;;;;;;3.53;1.10;;;;;;;;;;4983792;28;98819;-73
2022/08/06 07:50:20;;;;;;;2.38;1.10;;;;;;;;;;4991520;28;99168;-73
2022/08/06 07:52:50;;;;;;;2.45;1.00;;;;;;;;;;4985839;28;100010;-73
2022/08/06 07:55:17;;;;;;;1.95;0.75;;;;;;;;;;4977636;28;99314;-71
2022/08/06 07:57:44;;;;;;;3.67;0.90;;;;;;;;;;4976210;28;99427;-72
2022/08/06 08:00:22;;;;;;;1.70;0.85;;;;;;;;;;4979712;28;100081;-72
2022/08/06 08:08:27;;;;;;;2.33;0.80;;;;;;;;;;4973189;28;99827;-72
2022/08/06 08:10:54;;;;;;;1.73;0.90;;;;;;;;;;4973340;28;100553;-72
2022/08/06 08:13:23;;;;;;;3.63;1.30;;;;;;;;;;4974437;28;100994;-72
2022/08/06 08:16:08;;;;;;;2.25;1.40;;;;;;;;;;4974497;28;99488;-72
2022/08/06 08:18:35;;;;;;;3.60;0.80;;;;;;;;;;4971978;28;101807;-72
2022/08/06 08:21:04;;;;;;;3.92;0.90;;;;;;;;;;4972109;28;99914;-72
2022/08/06 08:23:32;;;;;;;1.27;0.80;;;;;;;;;;4976298;28;100316;-73
2022/08/06 08:26:07;;;;;;;2.75;1.48;;;;;;;;;;4975416;28;99481;-72
2022/08/06 08:28:37;;;;;;;2.30;0.90;;;;;;;;;;4970690;28;99565;-72
2022/08/06 08:31:07;;;;;;;1.52;0.98;;;;;;;;;;4971488;28;100382;-72
2022/08/06 08:33:46;;;;;;;1.77;0.98;;;;;;;;;;4974997;28;100577;-72
2022/08/06 08:36:13;;;;;;;3.83;1.05;;;;;;;;;;4976882;28;99081;-72
2022/08/06 08:38:40;;;;;;;2.83;1.00;;;;;;;;;;4978176;28;101319;-72
2022/08/06 08:41:15;;;;;;;1.40;0.95;;;;;;;;;;4973421;28;99818;-72
2022/08/06 08:43:50;;;;;;;6.25;1.15;;;;;;;;;;4977210;28;99162;-72
2022/08/06 08:46:31;;;;;;;1.60;0.73;;;;;;;;;;4980934;28;97878;-75
2022/08/06 08:49:05;;;;;;;1.92;0.82;;;;;;;;;;4976292;28;99992;-72
2022/08/06 08:51:34;;;;;;;3.20;1.00;;;;;;;;;;4976855;27;100647;-72
2022/08/06 08:54:09;;;;;;;2.05;0.85;;;;;;;;;;4973597;28;100217;-72
2022/08/06 08:56:37;;;;;;;1.80;0.77;;;;;;;;;;4975377;28;99790;-72
2022/08/06 08:59:24;;;;;;;4.53;0.73;;;;;;;;;;4980001;28;100058;-74
2022/08/06 09:02:12;;;;;;;1.50;0.88;;;;;;;;;;4971709;28;99984;-72
2022/08/06 09:04:40;;;;;;;2.17;0.98;;;;;;;;;;4975033;28;100175;-71
2022/08/06 09:07:10;;;;;;;0.75;0.65;;;;;;;;;;4975051;28;100074;-71
2022/08/06 09:09:44;;;;;;;5.40;1.08;;;;;;;;;;4974540;28;99184;-72
2022/08/06 09:12:26;;;;;;;3.78;0.73;;;;;;;;;;4973844;28;99938;-72
2022/08/06 09:14:58;;;;;;;;;;;;;;;;;;4975017;28;98738;-72
2022/08/06 09:17:25;;;;;;;1.88;0.80;;;;;;;;;;4975502;28;121893;-72
2022/08/06 09:20:11;;;;;;;1.60;0.88;;;;;;;;;;4979237;28;100081;-72
2022/08/06 09:22:50;;;;;;;10.85;1.00;;;;;;;;;;4975814;28;101393;-71
2022/08/06 09:25:37;;;;;;;0.65;0.65;;;;;;;;;;4983347;28;100084;-73
2022/08/06 09:28:34;;;;;;;2.60;1.10;;;;;;;;;;4985341;28;98485;-73
2022/08/06 09:31:08;;;;;;;11.52;1.02;;;;;;;;;;4971951;28;100060;-72
2022/08/06 09:33:53;;;;;;;8.75;1.45;;;;;;;;;;4971730;28;99234;-72
2022/08/06 09:36:43;;;;;;;10.75;0.90;;;;;;;;;;4971529;28;98741;-71
2022/08/06 09:39:11;;;;;;;1.65;0.70;;;;;;;;;;4972759;28;99248;-72
2022/08/06 09:41:45;;;;;;;1.60;0.80;;;;;;;;;;4971577;28;100341;-71
2022/08/06 09:44:11;;;;;;;5.97;0.95;;;;;;;;;;4974860;28;98466;-72
2022/08/06 09:46:59;;;;;;;1.90;1.10;;;;;;;;;;4969023;28;101440;-72
2022/08/06 09:49:28;;;;;;;0.63;0.50;;;;;;;;;;4972800;28;98520;-73
2022/08/06 09:52:15;;;;;;;0.98;0.60;;;;;;;;;;4974567;28;99113;-72
2022/08/06 09:54:43;;;;;;;1.65;0.85;;;;;;;;;;4972593;28;100060;-72
2022/08/06 09:57:13;;;;;;;1.08;0.60;;;;;;;;;;4979226;28;98579;-72
2022/08/06 09:59:44;;;;;;;1.00;0.68;;;;;;;;;;4972727;28;99173;-73
2022/08/06 10:02:17;;;;;;;0.75;0.50;;;;;;;;;;4973115;28;99408;-72
2022/08/06 10:04:51;;;;;;;0.70;0.60;;;;;;;;;;4974990;28;97865;-72
2022/08/06 10:07:30;;;;;;;2.83;0.95;;;;;;;;;;4995244;28;98985;-72
2022/08/06 10:10:06;;;;;;;1.40;0.47;;;;;;;;;;4994743;28;98771;-72
2022/08/06 10:12:34;;;;;;;2.05;0.90;;;;;;;;;;4994448;28;99247;-72
2022/08/06 10:15:03;;;;;;;1.38;0.80;;;;;;;;;;4993900;28;99405;-72
2022/08/06 10:17:33;;;;;;;1.77;0.63;;;;;;;;;;4993798;28;98548;-72
2022/08/06 10:20:18;;;;;;;0.50;0.50;;;;;;;;;;4994602;28;98939;-72
2022/08/06 10:22:54;;;;;;;1.02;0.60;;;;;;;;;;4993131;28;99145;-72
2022/08/06 10:25:24;;;;;;;2.65;0.90;;;;;;;;;;4994237;28;99904;-72
2022/08/06 10:27:56;;;;;;;1.42;0.80;;;;;;;;;;4993178;28;99326;-73
2022/08/06 10:30:22;;;;;;;0.85;0.55;;;;;;;;;;4997387;28;98582;-73
2022/08/06 10:32:55;;;;;;;2.67;0.80;;;;;;;;;;4991042;28;100059;-72
2022/08/06 10:35:26;;;;;;;2.15;0.50;;;;;;;;;;4984468;28;99440;-72
2022/08/06 10:37:59;;;;;;;1.17;0.60;;;;;;;;;;4993891;28;100238;-72
2022/08/06 10:40:30;;;;;;;1.77;1.08;;;;;;;;;;4994620;28;99595;-72
2022/08/06 10:42:58;;;;;;;1.35;0.65;;;;;;;;;;4992615;28;99447;-72
2022/08/06 10:45:26;;;;;;;0.52;0.50;;;;;;;;;;4994044;28;98486;-72
2022/08/06 10:48:07;;;;;;;0.90;0.65;;;;;;;;;;4994164;28;99194;-72
2022/08/06 10:50:53;;;;;;;1.38;0.60;;;;;;;;;;4980125;28;99384;-72
2022/08/06 10:53:22;;;;;;;0.63;0.60;;;;;;;;;;4977591;28;98946;-72
2022/08/06 10:56:10;;;;;;;0.55;0.50;;;;;;;;;;4988847;28;98707;-72
2022/08/06 10:58:38;;;;;;;0.68;0.60;;;;;;;;;;4993207;28;98502;-72
2022/08/06 11:01:08;;;;;;;0.88;0.65;;;;;;;;;;4993551;28;99167;-72
2022/08/06 11:03:55;;;;;;;2.20;0.70;;;;;;;;;;4991876;28;101102;-72
2022/08/06 11:06:40;;;;;;;2.67;0.80;;;;;;;;;;4993784;28;98598;-72
2022/08/06 11:09:35;;;;;;;1.17;0.70;;;;;;;;;;4993477;28;100217;-72
2022/08/06 11:12:26;;;;;;;0.98;0.98;;;;;;;;;;4993778;28;99603;-72
2022/08/06 11:14:53;;;;;;;1.33;0.82;;;;;;;;;;4992273;28;98497;-74
2022/08/06 11:17:20;;;;;;;1.58;0.68;;;;;;;;;;4994033;28;100036;-75
2022/08/06 11:19:48;;;;;;;2.83;0.65;;;;;;;;;;4993360;28;98408;-74
2022/08/06 11:22:34;;;;;;;0.60;0.60;;;;;;;;;;4991791;28;100038;-75
2022/08/06 11:25:02;;;;;;;3.03;0.70;;;;;;;;;;4982701;28;99446;-73
2022/08/06 11:27:52;;;;;;;0.60;0.60;;;;;;;;;;4972892;28;98494;-73
2022/08/06 11:30:41;;;;;;;0.65;0.65;;;;;;;;;;4973023;28;99245;-73
2022/08/06 11:33:12;;;;;;;0.70;0.70;;;;;;;;;;4975887;28;100217;-73
2022/08/06 11:35:44;;;;;;;1.92;1.02;;;;;;;;;;4992698;28;98793;-73
2022/08/06 11:38:48;;;;;;;2.53;0.90;;;;;;;;;;4994713;28;100082;-72
2022/08/06 11:41:21;;;;;;;1.38;1.05;;;;;;;;;;4983002;28;98600;-72
2022/08/06 11:44:08;;;;;;;1.33;1.15;;;;;;;;;;4992550;28;99113;-73
2022/08/06 11:46:36;;;;;;;0.88;0.88;;;;;;;;;;4992247;28;99362;-72
2022/08/06 11:49:21;;;;;;;3.70;1.23;;;;;;;;;;4994046;28;97915;-72
2022/08/06 11:51:49;;;;;;;5.45;1.40;;;;;;;;;;4992638;28;99287;-72
2022/08/06 11:54:32;;;;;;;3.03;1.00;;;;;;;;;;4995102;28;100227;-72
2022/08/06 11:57:12;;;;;;;2.22;0.90;;;;;;;;;;5012402;28;99243;-73
2022/08/06 11:59:58;;;;;;;1.20;1.10;;;;;;;;;;4972352;28;99839;-72
2022/08/06 12:02:40;;;;;;;1.00;1.00;;;;;;;;;;4975753;28;99293;-71
2022/08/06 12:05:31;;;;;;;4.65;1.00;;;;;;;;;;4973042;28;99026;-72
2022/08/06 12:08:18;;;;;;;2.80;1.00;;;;;;;;;;4971868;28;100762;-71
2022/08/06 12:11:21;;;;;;;1.65;0.90;;;;;;;;;;4972733;28;98498;-72
2022/08/06 12:13:49;;;;;;;2.35;1.00;;;;;;;;;;4971438;28;98800;-72
2022/08/06 12:16:37;;;;;;;1.60;0.90;;;;;;;;;;4981261;28;98681;-72
2022/08/06 12:19:11;;;;;;;1.30;1.20;;;;;;;;;;4992887;28;98527;-74
2022/08/06 12:21:39;;;;;;;1.95;1.00;;;;;;;;;;4991951;28;99857;-74
2022/08/06 12:24:14;;;;;;;1.92;0.93;;;;;;;;;;4971421;28;100106;-74
2022/08/06 12:26:41;;;;;;;2.80;0.88;;;;;;;;;;4977529;28;98519;-74
2022/08/06 12:29:08;;;;;;;0.80;0.80;;;;;;;;;;4971713;28;98796;-73
2022/08/06 12:31:35;;;;;;;1.38;0.88;;;;;;;;;;4973832;28;98452;-72
2022/08/06 12:34:25;;;;;;;0.93;0.65;;;;;;;;;;4971384;28;99867;-72
2022/08/06 12:36:53;;;;;;;2.67;1.00;;;;;;;;;;4971314;28;100342;-72
2022/08/06 12:40:23;;;;;;;2.70;1.00;;;;;;;;;;4971495;28;98490;-74
2022/08/06 12:42:24;;;;;;;5.85;0.77;;;;;;;;;;4971188;28;99188;-73
2022/08/06 12:45:11;;;;;;;0.93;0.80;;;;;;;;;;4972527;28;99231;-73
2022/08/06 12:48:07;;;;;;;1.98;0.73;;;;;;;;;;4972229;28;98586;-73
2022/08/06 12:50:43;;;;;;;1.77;0.73;;;;;;;;;;4974796;28;99466;-72
2022/08/06 12:53:10;;;;;;;1.17;0.77;;;;;;;;;;4972619;28;98497;-73
2022/08/06 12:55:43;;;;;;;0.70;0.70;;;;;;;;;;4982787;28;100115;-73
2022/08/06 12:58:10;;;;;;;0.82;0.68;;;;;;;;;;4991179;28;100269;-73
2022/08/06 13:00:57;;;;;;;0.82;0.60;;;;;;;;;;4991579;28;98616;-72
2022/08/06 13:03:29;;;;;;;1.40;0.80;;;;;;;;;;4991087;28;99972;-71
2022/08/06 13:06:04;;;;;;;1.63;0.90;;;;;;;;;;4988202;28;99649;-73
2022/08/06 13:08:30;;;;;;;1.30;0.80;;;;;;;;;;4992196;28;97785;-74
2022/08/06 13:10:57;;;;;;;1.23;0.85;;;;;;;;;;4990332;28;99260;-73
2022/08/06 13:13:42;;;;;;;0.88;0.80;;;;;;;;;;4993500;28;99367;-72
2022/08/06 13:16:37;;;;;;;3.80;0.85;;;;;;;;;;4990175;28;99361;-73
2022/08/06 13:19:11;;;;;;;1.25;1.15;;;;;;;;;;4990554;28;98542;-73
2022/08/06 13:21:45;;;;;;;2.22;1.00;;;;;;;;;;4990522;28;98591;-73
2022/08/06 13:24:26;;;;;;;1.55;0.82;;;;;;;;;;4989754;28;100805;-72
2022/08/06 13:27:01;;;;;;;2.53;0.82;;;;;;;;;;4991800;28;99302;-72
2022/08/06 13:29:34;;;;;;;1.08;0.90;;;;;;;;;;4992141;28;98681;-72
2022/08/06 13:32:23;;;;;;;1.73;0.80;;;;;;;;;;4991606;28;99707;-73
2022/08/06 13:34:59;;;;;;;2.72;0.90;;;;;;;;;;4988863;28;99520;-73
2022/08/06 13:37:42;;;;;;;1.38;1.00;;;;;;;;;;4995764;28;98642;-73
2022/08/06 13:40:40;;;;;;;1.83;0.88;;;;;;;;;;4993712;28;99365;-74
2022/08/06 13:43:14;;;;;;;2.75;0.90;;;;;;;;;;4994708;28;99269;-74
2022/08/06 13:46:05;;;;;;;1.33;0.85;;;;;;;;;;4994390;28;100603;-74
2022/08/06 13:48:33;;;;;;;0.90;0.90;;;;;;;;;;4994643;28;99302;-74
2022/08/06 13:51:03;;;;;;;7.63;1.00;;;;;;;;;;4994908;28;98492;-72
2022/08/06 13:53:38;;;;;;;0.73;0.73;;;;;;;;;;4993923;28;99203;-72
2022/08/06 13:56:15;;;;;;;1.90;1.10;;;;;;;;;;5011710;28;99237;-72
2022/08/06 13:58:54;;;;;;;2.38;1.00;;;;;;;;;;4997157;28;98614;-73
2022/08/06 14:01:24;;;;;;;1.13;0.93;;;;;;;;;;4995057;28;98869;-74
2022/08/06 14:04:10;;;;;;;3.03;0.90;;;;;;;;;;4995016;28;98938;-73
2022/08/06 14:06:38;;;;;;;1.00;1.00;;;;;;;;;;4993718;28;99859;-73
2022/08/06 14:09:09;;;;;;;3.40;1.00;;;;;;;;;;4993853;28;100301;-73
2022/08/06 14:11:50;;;;;;;1.85;0.77;;;;;;;;;;4994438;28;98514;-74
2022/08/06 14:14:20;;;;;;;1.67;1.10;;;;;;;;;;4993617;28;99222;-74
2022/08/06 14:16:48;;;;;;;2.92;1.00;;;;;;;;;;4993464;28;100058;-72
2022/08/06 14:19:18;;;;;;;0.93;0.93;;;;;;;;;;4994387;28;98541;-73
2022/08/06 14:22:07;;;;;;;2.47;1.08;;;;;;;;;;4994804;28;98965;-72
2022/08/06 14:24:33;;;;;;;2.25;1.27;;;;;;;;;;4994690;28;98611;-74
2022/08/06 14:27:06;;;;;;;1.10;1.00;;;;;;;;;;4994694;28;99980;-73
2022/08/06 14:29:41;;;;;;;1.60;1.10;;;;;;;;;;4993422;28;100118;-73
2022/08/06 14:32:27;;;;;;;4.68;1.20;;;;;;;;;;4993382;28;99462;-73
2022/08/06 14:34:55;;;;;;;1.25;1.00;;;;;;;;;;4993251;28;99694;-72
2022/08/06 14:37:22;;;;;;;2.53;0.80;;;;;;;;;;4992726;28;99171;-72
2022/08/06 14:40:09;;;;;;;1.58;1.02;;;;;;;;;;4978278;28;98892;-72
2022/08/06 14:45:25;;;;;;;2.20;1.13;;;;;;;;;;4981419;28;100087;-72
2022/08/06 14:48:04;;;;;;;1.63;1.10;;;;;;;;;;4978787;28;100821;-73
2022/08/06 14:50:32;;;;;;;1.88;1.05;;;;;;;;;;4977516;28;100943;-73
2022/08/06 14:53:06;;;;;;;2.80;1.00;;;;;;;;;;4977324;28;98250;-73
2022/08/06 14:55:32;;;;;;;1.75;1.10;;;;;;;;;;4987470;28;98394;-72
2022/08/06 14:57:59;;;;;;;1.02;1.00;;;;;;;;;;4986469;28;99171;-71
2022/08/06 15:00:33;;;;;;;1.30;1.20;;;;;;;;;;4977180;28;99960;-72
2022/08/06 15:03:06;;;;;;;2.55;1.05;;;;;;;;;;4977295;28;100668;-72
2022/08/06 15:05:39;;;;;;;1.40;1.30;;;;;;;;;;4983487;28;100261;-72
2022/08/06 15:08:26;;;;;;;4.50;1.10;;;;;;;;;;4978716;28;99327;-72
2022/08/06 15:10:52;;;;;;;2.33;1.35;;;;;;;;;;4976352;28;99664;-73
2022/08/06 15:13:19;;;;;;;2.90;1.20;;;;;;;;;;4976385;28;100537;-72
2022/08/06 15:15:58;;;;;;;1.77;1.38;;;;;;;;;;4976507;28;100574;-74
2022/08/06 15:18:24;;;;;;;2.25;1.27;;;;;;;;;;4977089;28;99664;-72
2022/08/06 15:21:11;;;;;;;1.27;1.10;;;;;;;;;;4981068;28;98538;-74
2022/08/06 15:23:41;;;;;;;1.45;1.10;;;;;;;;;;4970061;28;99932;-73
2022/08/06 15:26:20;;;;;;;5.05;1.98;;;;;;;;;;4972789;28;102862;-76
2022/08/06 15:29:07;;;;;;;4.25;1.40;;;;;;;;;;4973036;28;101214;-73
2022/08/06 15:31:41;;;;;;;1.88;1.70;;;;;;;;;;4981038;28;99716;-72
2022/08/06 15:34:08;;;;;;;1.17;1.13;;;;;;;;;;4979542;28;98837;-74
2022/08/06 15:36:38;;;;;;;2.53;1.45;;;;;;;;;;4976813;28;99893;-73